sensor_id;sensor_type;location;lat;lon;timestamp;P1;P2;P0
62591;PMS5003;48659;41.622;2.276;2023-04-07T00:01:07;15;15;
62591;PMS5003;48659;41.622;2.276;2023-04-07T00:03:34;16;14;
62591;PMS5003;48659;41.622;2.276;2023-04-07T00:06:02;17;16;
62591;PMS5003;48659;41.622;2.276;2023-04-07T00:08:29;20;14;
62591;PMS5003;48659;41.622;2.276;2023-04-07T00:11:04;13;13;
62591;PMS5003;48659;41.622;2.276;2023-04-07T00:13:31;14;12;
62591;PMS5003;48659;41.622;2.276;2023-04-07T00:15:59;16;14;
62591;PMS5003;48659;41.622;2.276;2023-04-07T00:18:27;12;12;
62591;PMS5003;48659;41.622;2.276;2023-04-07T00:21:03;12;11;
62591;PMS5003;48659;41.622;2.276;2023-04-07T00:23:31;15;13;
62591;PMS5003;48659;41.622;2.276;2023-04-07T00:25:59;13;11;
62591;PMS5003;48659;41.622;2.276;2023-04-07T00:28:26;11;11;
62591;PMS5003;48659;41.622;2.276;2023-04-07T00:30:54;12;12;
62591;PMS5003;48659;41.622;2.276;2023-04-07T00:31:01;12;11;
62591;PMS5003;48659;41.622;2.276;2023-04-07T00:33:29;13;11;
62591;PMS5003;48659;41.622;2.276;2023-04-07T00:36:01;14;12;
62591;PMS5003;48659;41.622;2.276;2023-04-07T00:38:29;11;11;
62591;PMS5003;48659;41.622;2.276;2023-04-07T00:41:02;11;11;
62591;PMS5003;48659;41.622;2.276;2023-04-07T00:43:30;13;11;
62591;PMS5003;48659;41.622;2.276;2023-04-07T00:46:01;15;15;
62591;PMS5003;48659;41.622;2.276;2023-04-07T00:48:28;13;13;
62591;PMS5003;48659;41.622;2.276;2023-04-07T00:51:01;13;13;
62591;PMS5003;48659;41.622;2.276;2023-04-07T00:53:30;12;11;
62591;PMS5003;48659;41.622;2.276;2023-04-07T00:56:01;12;12;
62591;PMS5003;48659;41.622;2.276;2023-04-07T00:58:28;15;12;
62591;PMS5003;48659;41.622;2.276;2023-04-07T01:00:58;12;12;
62591;PMS5003;48659;41.622;2.276;2023-04-07T01:03:32;12;12;
62591;PMS5003;48659;41.622;2.276;2023-04-07T01:06:01;10;10;
62591;PMS5003;48659;41.622;2.276;2023-04-07T01:08:37;13;13;
62591;PMS5003;48659;41.622;2.276;2023-04-07T01:11:12;13;13;
62591;PMS5003;48659;41.622;2.276;2023-04-07T01:16:22;12;12;
62591;PMS5003;48659;41.622;2.276;2023-04-07T01:19:04;11;11;
62591;PMS5003;48659;41.622;2.276;2023-04-07T01:21:39;11;11;
62591;PMS5003;48659;41.622;2.276;2023-04-07T01:24:15;17;14;
62591;PMS5003;48659;41.622;2.276;2023-04-07T01:26:52;16;12;
62591;PMS5003;48659;41.622;2.276;2023-04-07T01:29:40;12;12;
62591;PMS5003;48659;41.622;2.276;2023-04-07T01:32:11;15;11;
62591;PMS5003;48659;41.622;2.276;2023-04-07T01:34:41;14;13;
62591;PMS5003;48659;41.622;2.276;2023-04-07T01:37:11;9;9;
62591;PMS5003;48659;41.622;2.276;2023-04-07T01:39:40;10;10;
62591;PMS5003;48659;41.622;2.276;2023-04-07T01:42:08;11;11;
62591;PMS5003;48659;41.622;2.276;2023-04-07T01:44:35;11;11;
62591;PMS5003;48659;41.622;2.276;2023-04-07T01:47:03;13;13;
62591;PMS5003;48659;41.622;2.276;2023-04-07T01:49:31;14;13;
62591;PMS5003;48659;41.622;2.276;2023-04-07T01:52:02;12;12;
62591;PMS5003;48659;41.622;2.276;2023-04-07T01:54:30;11;11;
62591;PMS5003;48659;41.622;2.276;2023-04-07T01:56:58;13;12;
62591;PMS5003;48659;41.622;2.276;2023-04-07T01:59:26;13;11;
62591;PMS5003;48659;41.622;2.276;2023-04-07T02:01:53;11;11;
62591;PMS5003;48659;41.622;2.276;2023-04-07T02:04:22;12;12;
62591;PMS5003;48659;41.622;2.276;2023-04-07T02:06:58;11;11;
62591;PMS5003;48659;41.622;2.276;2023-04-07T02:09:27;14;13;
62591;PMS5003;48659;41.622;2.276;2023-04-07T02:12:02;16;14;
62591;PMS5003;48659;41.622;2.276;2023-04-07T02:14:34;13;12;
62591;PMS5003;48659;41.622;2.276;2023-04-07T02:17:03;14;13;
62591;PMS5003;48659;41.622;2.276;2023-04-07T02:19:31;14;14;
62591;PMS5003;48659;41.622;2.276;2023-04-07T02:22:02;15;13;
62591;PMS5003;48659;41.622;2.276;2023-04-07T02:24:31;15;14;
62591;PMS5003;48659;41.622;2.276;2023-04-07T02:27:02;17;14;
62591;PMS5003;48659;41.622;2.276;2023-04-07T02:29:29;16;15;
62591;PMS5003;48659;41.622;2.276;2023-04-07T02:31:56;11;11;
62591;PMS5003;48659;41.622;2.276;2023-04-07T02:34:24;14;13;
62591;PMS5003;48659;41.622;2.276;2023-04-07T02:36:51;13;13;
62591;PMS5003;48659;41.622;2.276;2023-04-07T02:39:19;16;15;
62591;PMS5003;48659;41.622;2.276;2023-04-07T02:41:46;13;13;
62591;PMS5003;48659;41.622;2.276;2023-04-07T02:44:13;13;12;
62591;PMS5003;48659;41.622;2.276;2023-04-07T02:46:40;14;12;
62591;PMS5003;48659;41.622;2.276;2023-04-07T02:49:08;12;12;
62591;PMS5003;48659;41.622;2.276;2023-04-07T02:51:35;13;13;
62591;PMS5003;48659;41.622;2.276;2023-04-07T02:54:02;15;15;
62591;PMS5003;48659;41.622;2.276;2023-04-07T02:56:29;15;15;
62591;PMS5003;48659;41.622;2.276;2023-04-07T02:59:01;15;15;
62591;PMS5003;48659;41.622;2.276;2023-04-07T03:01:28;17;15;
62591;PMS5003;48659;41.622;2.276;2023-04-07T03:04:02;18;14;
62591;PMS5003;48659;41.622;2.276;2023-04-07T03:06:29;14;14;
62591;PMS5003;48659;41.622;2.276;2023-04-07T03:09:02;15;15;
62591;PMS5003;48659;41.622;2.276;2023-04-07T03:11:29;14;14;
62591;PMS5003;48659;41.622;2.276;2023-04-07T03:14:02;18;15;
62591;PMS5003;48659;41.622;2.276;2023-04-07T03:16:29;20;20;
62591;PMS5003;48659;41.622;2.276;2023-04-07T03:18:57;16;14;
62591;PMS5003;48659;41.622;2.276;2023-04-07T03:21:24;14;14;
62591;PMS5003;48659;41.622;2.276;2023-04-07T03:23:51;14;13;
62591;PMS5003;48659;41.622;2.276;2023-04-07T03:26:18;13;11;
62591;PMS5003;48659;41.622;2.276;2023-04-07T03:28:47;16;15;
62591;PMS5003;48659;41.622;2.276;2023-04-07T03:31:14;14;14;
62591;PMS5003;48659;41.622;2.276;2023-04-07T03:33:41;15;15;
62591;PMS5003;48659;41.622;2.276;2023-04-07T03:36:09;14;14;
62591;PMS5003;48659;41.622;2.276;2023-04-07T03:38:36;13;13;
62591;PMS5003;48659;41.622;2.276;2023-04-07T03:41:04;20;18;
62591;PMS5003;48659;41.622;2.276;2023-04-07T03:43:32;19;16;
62591;PMS5003;48659;41.622;2.276;2023-04-07T03:46:02;18;17;
62591;PMS5003;48659;41.622;2.276;2023-04-07T03:48:29;19;15;
62591;PMS5003;48659;41.622;2.276;2023-04-07T03:51:02;15;14;
62591;PMS5003;48659;41.622;2.276;2023-04-07T03:53:30;16;16;
62591;PMS5003;48659;41.622;2.276;2023-04-07T03:56:01;13;13;
62591;PMS5003;48659;41.622;2.276;2023-04-07T03:58:29;13;13;
62591;PMS5003;48659;41.622;2.276;2023-04-07T04:00:56;19;15;
62591;PMS5003;48659;41.622;2.276;2023-04-07T04:03:23;15;14;
62591;PMS5003;48659;41.622;2.276;2023-04-07T04:05:50;18;16;
62591;PMS5003;48659;41.622;2.276;2023-04-07T04:08:19;14;14;
62591;PMS5003;48659;41.622;2.276;2023-04-07T04:10:46;14;14;
62591;PMS5003;48659;41.622;2.276;2023-04-07T04:13:13;17;14;
62591;PMS5003;48659;41.622;2.276;2023-04-07T04:15:40;22;17;
62591;PMS5003;48659;41.622;2.276;2023-04-07T04:18:08;20;18;
62591;PMS5003;48659;41.622;2.276;2023-04-07T04:20:36;16;16;
62591;PMS5003;48659;41.622;2.276;2023-04-07T04:23:04;19;16;
62591;PMS5003;48659;41.622;2.276;2023-04-07T04:25:31;19;17;
62591;PMS5003;48659;41.622;2.276;2023-04-07T04:27:59;17;17;
62591;PMS5003;48659;41.622;2.276;2023-04-07T04:30:26;20;20;
62591;PMS5003;48659;41.622;2.276;2023-04-07T04:32:53;15;15;
62591;PMS5003;48659;41.622;2.276;2023-04-07T04:35:32;23;23;
62591;PMS5003;48659;41.622;2.276;2023-04-07T04:38:03;16;16;
62591;PMS5003;48659;41.622;2.276;2023-04-07T04:40:30;21;18;
62591;PMS5003;48659;41.622;2.276;2023-04-07T04:43:01;16;15;
62591;PMS5003;48659;41.622;2.276;2023-04-07T04:45:28;16;16;
62591;PMS5003;48659;41.622;2.276;2023-04-07T04:48:03;22;20;
62591;PMS5003;48659;41.622;2.276;2023-04-07T04:50:31;21;17;
62591;PMS5003;48659;41.622;2.276;2023-04-07T04:52:58;16;16;
62591;PMS5003;48659;41.622;2.276;2023-04-07T04:55:25;18;14;
62591;PMS5003;48659;41.622;2.276;2023-04-07T04:57:53;20;17;
62591;PMS5003;48659;41.622;2.276;2023-04-07T05:00:20;19;19;
62591;PMS5003;48659;41.622;2.276;2023-04-07T05:02:48;20;17;
62591;PMS5003;48659;41.622;2.276;2023-04-07T05:05:15;20;17;
62591;PMS5003;48659;41.622;2.276;2023-04-07T05:07:43;20;19;
62591;PMS5003;48659;41.622;2.276;2023-04-07T05:10:10;15;15;
62591;PMS5003;48659;41.622;2.276;2023-04-07T05:12:38;18;18;
62591;PMS5003;48659;41.622;2.276;2023-04-07T05:15:06;20;18;
62591;PMS5003;48659;41.622;2.276;2023-04-07T05:17:34;23;20;
62591;PMS5003;48659;41.622;2.276;2023-04-07T05:20:03;19;15;
62591;PMS5003;48659;41.622;2.276;2023-04-07T05:22:32;17;17;
62591;PMS5003;48659;41.622;2.276;2023-04-07T05:25:02;24;21;
62591;PMS5003;48659;41.622;2.276;2023-04-07T05:27:30;21;21;
62591;PMS5003;48659;41.622;2.276;2023-04-07T05:29:57;22;22;
62591;PMS5003;48659;41.622;2.276;2023-04-07T05:32:26;17;16;
62591;PMS5003;48659;41.622;2.276;2023-04-07T05:35:02;19;19;
62591;PMS5003;48659;41.622;2.276;2023-04-07T05:37:30;18;17;
62591;PMS5003;48659;41.622;2.276;2023-04-07T05:39:58;16;16;
62591;PMS5003;48659;41.622;2.276;2023-04-07T05:42:25;19;17;
62591;PMS5003;48659;41.622;2.276;2023-04-07T05:44:52;20;18;
62591;PMS5003;48659;41.622;2.276;2023-04-07T05:47:20;17;17;
62591;PMS5003;48659;41.622;2.276;2023-04-07T05:49:47;21;19;
62591;PMS5003;48659;41.622;2.276;2023-04-07T05:52:15;21;19;
62591;PMS5003;48659;41.622;2.276;2023-04-07T05:54:43;19;19;
62591;PMS5003;48659;41.622;2.276;2023-04-07T05:57:10;20;20;
62591;PMS5003;48659;41.622;2.276;2023-04-07T05:59:37;30;28;
62591;PMS5003;48659;41.622;2.276;2023-04-07T06:02:05;18;18;
62591;PMS5003;48659;41.622;2.276;2023-04-07T06:04:33;18;17;
62591;PMS5003;48659;41.622;2.276;2023-04-07T06:07:01;20;17;
62591;PMS5003;48659;41.622;2.276;2023-04-07T06:09:28;27;23;
62591;PMS5003;48659;41.622;2.276;2023-04-07T06:12:03;29;27;
62591;PMS5003;48659;41.622;2.276;2023-04-07T06:14:32;18;18;
62591;PMS5003;48659;41.622;2.276;2023-04-07T06:17:01;26;25;
62591;PMS5003;48659;41.622;2.276;2023-04-07T06:19:29;28;28;
62591;PMS5003;48659;41.622;2.276;2023-04-07T06:22:03;23;21;
62591;PMS5003;48659;41.622;2.276;2023-04-07T06:24:31;28;24;
62591;PMS5003;48659;41.622;2.276;2023-04-07T06:27:04;23;20;
62591;PMS5003;48659;41.622;2.276;2023-04-07T06:29:32;29;28;
62591;PMS5003;48659;41.622;2.276;2023-04-07T06:32:03;25;22;
62591;PMS5003;48659;41.622;2.276;2023-04-07T06:34:30;24;24;
62591;PMS5003;48659;41.622;2.276;2023-04-07T06:37:02;21;19;
62591;PMS5003;48659;41.622;2.276;2023-04-07T06:39:30;31;26;
62591;PMS5003;48659;41.622;2.276;2023-04-07T06:42:01;24;23;
62591;PMS5003;48659;41.622;2.276;2023-04-07T06:44:29;26;22;
62591;PMS5003;48659;41.622;2.276;2023-04-07T06:46:57;24;22;
62591;PMS5003;48659;41.622;2.276;2023-04-07T06:49:24;22;21;
62591;PMS5003;48659;41.622;2.276;2023-04-07T06:51:52;25;25;
62591;PMS5003;48659;41.622;2.276;2023-04-07T06:54:19;26;24;
62591;PMS5003;48659;41.622;2.276;2023-04-07T06:56:47;26;24;
62591;PMS5003;48659;41.622;2.276;2023-04-07T06:59:14;29;25;
62591;PMS5003;48659;41.622;2.276;2023-04-07T07:01:41;29;28;
62591;PMS5003;48659;41.622;2.276;2023-04-07T07:04:08;30;29;
62591;PMS5003;48659;41.622;2.276;2023-04-07T07:06:36;26;24;
62591;PMS5003;48659;41.622;2.276;2023-04-07T07:09:03;24;22;
62591;PMS5003;48659;41.622;2.276;2023-04-07T07:11:30;22;22;
62591;PMS5003;48659;41.622;2.276;2023-04-07T07:14:03;28;27;
62591;PMS5003;48659;41.622;2.276;2023-04-07T07:16:30;31;27;
62591;PMS5003;48659;41.622;2.276;2023-04-07T07:19:02;28;28;
62591;PMS5003;48659;41.622;2.276;2023-04-07T07:21:29;27;27;
62591;PMS5003;48659;41.622;2.276;2023-04-07T07:24:02;28;28;
62591;PMS5003;48659;41.622;2.276;2023-04-07T07:26:29;26;24;
62591;PMS5003;48659;41.622;2.276;2023-04-07T07:29:02;29;29;
62591;PMS5003;48659;41.622;2.276;2023-04-07T07:31:29;31;27;
62591;PMS5003;48659;41.622;2.276;2023-04-07T07:34:03;36;31;
62591;PMS5003;48659;41.622;2.276;2023-04-07T07:36:31;28;27;
62591;PMS5003;48659;41.622;2.276;2023-04-07T07:39:01;28;24;
62591;PMS5003;48659;41.622;2.276;2023-04-07T07:41:29;32;28;
62591;PMS5003;48659;41.622;2.276;2023-04-07T07:44:01;27;26;
62591;PMS5003;48659;41.622;2.276;2023-04-07T07:46:29;26;26;
62591;PMS5003;48659;41.622;2.276;2023-04-07T07:49:04;25;25;
62591;PMS5003;48659;41.622;2.276;2023-04-07T07:51:31;34;32;
62591;PMS5003;48659;41.622;2.276;2023-04-07T07:54:02;30;30;
62591;PMS5003;48659;41.622;2.276;2023-04-07T07:56:30;34;30;
62591;PMS5003;48659;41.622;2.276;2023-04-07T07:59:03;29;29;
62591;PMS5003;48659;41.622;2.276;2023-04-07T08:01:30;28;25;
62591;PMS5003;48659;41.622;2.276;2023-04-07T08:04:02;34;30;
62591;PMS5003;48659;41.622;2.276;2023-04-07T08:06:29;27;25;
62591;PMS5003;48659;41.622;2.276;2023-04-07T08:09:02;22;20;
62591;PMS5003;48659;41.622;2.276;2023-04-07T08:11:29;23;20;
62591;PMS5003;48659;41.622;2.276;2023-04-07T08:13:56;24;24;
62591;PMS5003;48659;41.622;2.276;2023-04-07T08:16:23;20;20;
62591;PMS5003;48659;41.622;2.276;2023-04-07T08:18:51;20;20;
62591;PMS5003;48659;41.622;2.276;2023-04-07T08:21:18;25;20;
62591;PMS5003;48659;41.622;2.276;2023-04-07T08:23:46;22;22;
62591;PMS5003;48659;41.622;2.276;2023-04-07T08:26:13;21;20;
62591;PMS5003;48659;41.622;2.276;2023-04-07T08:28:40;21;20;
62591;PMS5003;48659;41.622;2.276;2023-04-07T08:31:08;19;19;
62591;PMS5003;48659;41.622;2.276;2023-04-07T08:33:35;24;22;
62591;PMS5003;48659;41.622;2.276;2023-04-07T08:36:02;30;27;
62591;PMS5003;48659;41.622;2.276;2023-04-07T08:38:30;26;24;
62591;PMS5003;48659;41.622;2.276;2023-04-07T08:40:59;27;27;
62591;PMS5003;48659;41.622;2.276;2023-04-07T08:43:29;24;23;
62591;PMS5003;48659;41.622;2.276;2023-04-07T08:46:04;27;24;
62591;PMS5003;48659;41.622;2.276;2023-04-07T08:48:31;25;25;
62591;PMS5003;48659;41.622;2.276;2023-04-07T08:51:03;27;25;
62591;PMS5003;48659;41.622;2.276;2023-04-07T08:53:37;21;20;
62591;PMS5003;48659;41.622;2.276;2023-04-07T08:56:10;21;21;
62591;PMS5003;48659;41.622;2.276;2023-04-07T08:58:38;21;20;
62591;PMS5003;48659;41.622;2.276;2023-04-07T09:01:06;19;16;
62591;PMS5003;48659;41.622;2.276;2023-04-07T09:03:35;17;16;
62591;PMS5003;48659;41.622;2.276;2023-04-07T09:06:04;15;15;
62591;PMS5003;48659;41.622;2.276;2023-04-07T09:08:31;13;13;
62591;PMS5003;48659;41.622;2.276;2023-04-07T09:11:03;15;14;
62591;PMS5003;48659;41.622;2.276;2023-04-07T09:13:30;17;17;
62591;PMS5003;48659;41.622;2.276;2023-04-07T09:15:59;27;25;
62591;PMS5003;48659;41.622;2.276;2023-04-07T09:18:28;19;19;
62591;PMS5003;48659;41.622;2.276;2023-04-07T09:21:03;22;17;
62591;PMS5003;48659;41.622;2.276;2023-04-07T09:23:32;20;16;
62591;PMS5003;48659;41.622;2.276;2023-04-07T09:26:17;18;18;
62591;PMS5003;48659;41.622;2.276;2023-04-07T09:28:47;27;21;
62591;PMS5003;48659;41.622;2.276;2023-04-07T09:31:17;22;22;
62591;PMS5003;48659;41.622;2.276;2023-04-07T09:33:44;19;17;
62591;PMS5003;48659;41.622;2.276;2023-04-07T09:36:11;18;18;
62591;PMS5003;48659;41.622;2.276;2023-04-07T09:38:39;20;16;
62591;PMS5003;48659;41.622;2.276;2023-04-07T09:41:08;16;15;
62591;PMS5003;48659;41.622;2.276;2023-04-07T09:43:37;16;15;
62591;PMS5003;48659;41.622;2.276;2023-04-07T09:46:07;17;16;
62591;PMS5003;48659;41.622;2.276;2023-04-07T09:48:36;17;16;
62591;PMS5003;48659;41.622;2.276;2023-04-07T09:51:04;18;16;
62591;PMS5003;48659;41.622;2.276;2023-04-07T09:53:41;13;12;
62591;PMS5003;48659;41.622;2.276;2023-04-07T09:56:11;11;11;
62591;PMS5003;48659;41.622;2.276;2023-04-07T09:58:39;13;12;
62591;PMS5003;48659;41.622;2.276;2023-04-07T10:01:07;14;11;
62591;PMS5003;48659;41.622;2.276;2023-04-07T10:03:35;11;11;
62591;PMS5003;48659;41.622;2.276;2023-04-07T10:06:04;12;11;
62591;PMS5003;48659;41.622;2.276;2023-04-07T10:08:32;10;9;
62591;PMS5003;48659;41.622;2.276;2023-04-07T10:11:04;8;7;
62591;PMS5003;48659;41.622;2.276;2023-04-07T10:13:32;8;8;
62591;PMS5003;48659;41.622;2.276;2023-04-07T10:16:06;10;9;
62591;PMS5003;48659;41.622;2.276;2023-04-07T10:18:35;9;8;
62591;PMS5003;48659;41.622;2.276;2023-04-07T10:21:06;9;9;
62591;PMS5003;48659;41.622;2.276;2023-04-07T10:23:43;9;9;
62591;PMS5003;48659;41.622;2.276;2023-04-07T10:26:19;8;8;
62591;PMS5003;48659;41.622;2.276;2023-04-07T10:28:52;9;9;
62591;PMS5003;48659;41.622;2.276;2023-04-07T10:31:31;6;6;
62591;PMS5003;48659;41.622;2.276;2023-04-07T10:34:02;6;5;
62591;PMS5003;48659;41.622;2.276;2023-04-07T10:36:30;7;5;
62591;PMS5003;48659;41.622;2.276;2023-04-07T10:39:18;9;7;
62591;PMS5003;48659;41.622;2.276;2023-04-07T10:41:46;9;8;
62591;PMS5003;48659;41.622;2.276;2023-04-07T10:44:46;6;6;
62591;PMS5003;48659;41.622;2.276;2023-04-07T10:47:13;7;6;
62591;PMS5003;48659;41.622;2.276;2023-04-07T10:50:13;7;7;
62591;PMS5003;48659;41.622;2.276;2023-04-07T10:52:43;6;6;
62591;PMS5003;48659;41.622;2.276;2023-04-07T10:55:27;8;8;
62591;PMS5003;48659;41.622;2.276;2023-04-07T10:58:19;7;6;
62591;PMS5003;48659;41.622;2.276;2023-04-07T11:01:20;8;7;
62591;PMS5003;48659;41.622;2.276;2023-04-07T11:04:04;6;6;
62591;PMS5003;48659;41.622;2.276;2023-04-07T11:06:33;6;5;
62591;PMS5003;48659;41.622;2.276;2023-04-07T11:09:03;8;8;
62591;PMS5003;48659;41.622;2.276;2023-04-07T11:11:34;12;11;
62591;PMS5003;48659;41.622;2.276;2023-04-07T11:14:03;10;10;
62591;PMS5003;48659;41.622;2.276;2023-04-07T11:16:34;10;10;
62591;PMS5003;48659;41.622;2.276;2023-04-07T11:19:03;7;7;
62591;PMS5003;48659;41.622;2.276;2023-04-07T11:21:31;11;11;
62591;PMS5003;48659;41.622;2.276;2023-04-07T11:24:02;9;9;
62591;PMS5003;48659;41.622;2.276;2023-04-07T11:26:35;11;7;
62591;PMS5003;48659;41.622;2.276;2023-04-07T11:29:05;8;8;
62591;PMS5003;48659;41.622;2.276;2023-04-07T11:31:33;10;8;
62591;PMS5003;48659;41.622;2.276;2023-04-07T11:34:03;11;9;
62591;PMS5003;48659;41.622;2.276;2023-04-07T11:36:31;11;10;
62591;PMS5003;48659;41.622;2.276;2023-04-07T11:39:02;10;8;
62591;PMS5003;48659;41.622;2.276;2023-04-07T11:41:30;7;7;
62591;PMS5003;48659;41.622;2.276;2023-04-07T11:44:03;12;10;
62591;PMS5003;48659;41.622;2.276;2023-04-07T11:46:31;11;10;
62591;PMS5003;48659;41.622;2.276;2023-04-07T11:49:07;11;10;
62591;PMS5003;48659;41.622;2.276;2023-04-07T11:51:36;12;12;
62591;PMS5003;48659;41.622;2.276;2023-04-07T11:54:03;12;12;
62591;PMS5003;48659;41.622;2.276;2023-04-07T11:56:40;12;11;
62591;PMS5003;48659;41.622;2.276;2023-04-07T11:59:15;16;13;
62591;PMS5003;48659;41.622;2.276;2023-04-07T12:01:45;8;8;
62591;PMS5003;48659;41.622;2.276;2023-04-07T12:04:12;9;8;
62591;PMS5003;48659;41.622;2.276;2023-04-07T12:06:40;13;11;
62591;PMS5003;48659;41.622;2.276;2023-04-07T12:09:08;10;9;
62591;PMS5003;48659;41.622;2.276;2023-04-07T12:11:50;9;8;
62591;PMS5003;48659;41.622;2.276;2023-04-07T12:14:17;12;10;
62591;PMS5003;48659;41.622;2.276;2023-04-07T12:16:45;10;9;
62591;PMS5003;48659;41.622;2.276;2023-04-07T12:19:13;8;8;
62591;PMS5003;48659;41.622;2.276;2023-04-07T12:21:41;8;8;
62591;PMS5003;48659;41.622;2.276;2023-04-07T12:24:08;9;8;
62591;PMS5003;48659;41.622;2.276;2023-04-07T12:26:35;10;9;
62591;PMS5003;48659;41.622;2.276;2023-04-07T12:29:03;9;9;
62591;PMS5003;48659;41.622;2.276;2023-04-07T12:31:31;9;9;
62591;PMS5003;48659;41.622;2.276;2023-04-07T12:34:01;10;10;
62591;PMS5003;48659;41.622;2.276;2023-04-07T12:36:29;9;9;
62591;PMS5003;48659;41.622;2.276;2023-04-07T12:38:57;11;8;
62591;PMS5003;48659;41.622;2.276;2023-04-07T12:41:24;11;10;
62591;PMS5003;48659;41.622;2.276;2023-04-07T12:43:51;7;6;
62591;PMS5003;48659;41.622;2.276;2023-04-07T12:46:19;10;8;
62591;PMS5003;48659;41.622;2.276;2023-04-07T12:48:47;10;8;
62591;PMS5003;48659;41.622;2.276;2023-04-07T12:51:15;9;8;
62591;PMS5003;48659;41.622;2.276;2023-04-07T12:53:43;10;8;
62591;PMS5003;48659;41.622;2.276;2023-04-07T12:56:10;8;8;
62591;PMS5003;48659;41.622;2.276;2023-04-07T12:58:37;10;7;
62591;PMS5003;48659;41.622;2.276;2023-04-07T13:01:05;6;6;
62591;PMS5003;48659;41.622;2.276;2023-04-07T13:03:33;8;8;
62591;PMS5003;48659;41.622;2.276;2023-04-07T13:06:03;7;7;
62591;PMS5003;48659;41.622;2.276;2023-04-07T13:08:30;6;6;
62591;PMS5003;48659;41.622;2.276;2023-04-07T13:11:02;8;7;
62591;PMS5003;48659;41.622;2.276;2023-04-07T13:13:30;9;8;
62591;PMS5003;48659;41.622;2.276;2023-04-07T13:15:58;6;6;
62591;PMS5003;48659;41.622;2.276;2023-04-07T13:18:26;6;6;
62591;PMS5003;48659;41.622;2.276;2023-04-07T13:20:53;8;7;
62591;PMS5003;48659;41.622;2.276;2023-04-07T13:23:21;6;6;
62591;PMS5003;48659;41.622;2.276;2023-04-07T13:25:49;7;7;
62591;PMS5003;48659;41.622;2.276;2023-04-07T13:28:17;8;8;
62591;PMS5003;48659;41.622;2.276;2023-04-07T13:30:44;9;8;
62591;PMS5003;48659;41.622;2.276;2023-04-07T13:33:11;6;6;
62591;PMS5003;48659;41.622;2.276;2023-04-07T13:35:39;6;6;
62591;PMS5003;48659;41.622;2.276;2023-04-07T13:38:06;7;7;
62591;PMS5003;48659;41.622;2.276;2023-04-07T13:40:33;6;5;
62591;PMS5003;48659;41.622;2.276;2023-04-07T13:43:00;8;8;
62591;PMS5003;48659;41.622;2.276;2023-04-07T13:45:28;6;6;
62591;PMS5003;48659;41.622;2.276;2023-04-07T13:47:55;5;5;
62591;PMS5003;48659;41.622;2.276;2023-04-07T13:50:23;6;6;
62591;PMS5003;48659;41.622;2.276;2023-04-07T13:52:51;8;6;
62591;PMS5003;48659;41.622;2.276;2023-04-07T13:55:18;7;6;
62591;PMS5003;48659;41.622;2.276;2023-04-07T13:57:45;6;6;
62591;PMS5003;48659;41.622;2.276;2023-04-07T14:00:14;12;10;
62591;PMS5003;48659;41.622;2.276;2023-04-07T14:02:42;10;10;
62591;PMS5003;48659;41.622;2.276;2023-04-07T14:05:09;6;6;
62591;PMS5003;48659;41.622;2.276;2023-04-07T14:07:36;5;5;
62591;PMS5003;48659;41.622;2.276;2023-04-07T14:10:04;6;6;
62591;PMS5003;48659;41.622;2.276;2023-04-07T14:12:33;6;6;
62591;PMS5003;48659;41.622;2.276;2023-04-07T14:15:04;5;5;
62591;PMS5003;48659;41.622;2.276;2023-04-07T14:17:31;3;3;
62591;PMS5003;48659;41.622;2.276;2023-04-07T14:20:04;5;5;
62591;PMS5003;48659;41.622;2.276;2023-04-07T14:22:32;6;5;
62591;PMS5003;48659;41.622;2.276;2023-04-07T14:25:04;5;5;
62591;PMS5003;48659;41.622;2.276;2023-04-07T14:27:32;7;6;
62591;PMS5003;48659;41.622;2.276;2023-04-07T14:30:03;6;6;
62591;PMS5003;48659;41.622;2.276;2023-04-07T14:32:31;4;4;
62591;PMS5003;48659;41.622;2.276;2023-04-07T14:34:59;6;6;
62591;PMS5003;48659;41.622;2.276;2023-04-07T14:37:27;5;5;
62591;PMS5003;48659;41.622;2.276;2023-04-07T14:40:07;6;6;
62591;PMS5003;48659;41.622;2.276;2023-04-07T14:42:35;4;4;
62591;PMS5003;48659;41.622;2.276;2023-04-07T14:45:03;5;5;
62591;PMS5003;48659;41.622;2.276;2023-04-07T14:47:30;4;4;
62591;PMS5003;48659;41.622;2.276;2023-04-07T14:49:58;5;5;
62591;PMS5003;48659;41.622;2.276;2023-04-07T14:52:26;5;5;
62591;PMS5003;48659;41.622;2.276;2023-04-07T14:54:53;7;6;
62591;PMS5003;48659;41.622;2.276;2023-04-07T14:57:21;7;5;
62591;PMS5003;48659;41.622;2.276;2023-04-07T14:59:48;6;4;
62591;PMS5003;48659;41.622;2.276;2023-04-07T15:02:16;5;5;
62591;PMS5003;48659;41.622;2.276;2023-04-07T15:04:44;4;4;
62591;PMS5003;48659;41.622;2.276;2023-04-07T15:07:11;4;4;
62591;PMS5003;48659;41.622;2.276;2023-04-07T15:09:39;6;4;
62591;PMS5003;48659;41.622;2.276;2023-04-07T15:12:07;6;5;
62591;PMS5003;48659;41.622;2.276;2023-04-07T15:14:34;5;4;
62591;PMS5003;48659;41.622;2.276;2023-04-07T15:17:03;4;4;
62591;PMS5003;48659;41.622;2.276;2023-04-07T15:19:31;6;4;
62591;PMS5003;48659;41.622;2.276;2023-04-07T15:22:03;4;3;
62591;PMS5003;48659;41.622;2.276;2023-04-07T15:24:31;4;4;
62591;PMS5003;48659;41.622;2.276;2023-04-07T15:26:57;5;5;
62591;PMS5003;48659;41.622;2.276;2023-04-07T15:29:24;4;4;
62591;PMS5003;48659;41.622;2.276;2023-04-07T15:31:52;6;3;
62591;PMS5003;48659;41.622;2.276;2023-04-07T15:34:19;6;5;
62591;PMS5003;48659;41.622;2.276;2023-04-07T15:36:46;4;4;
62591;PMS5003;48659;41.622;2.276;2023-04-07T15:39:14;3;3;
62591;PMS5003;48659;41.622;2.276;2023-04-07T15:41:41;4;4;
62591;PMS5003;48659;41.622;2.276;2023-04-07T15:44:09;7;5;
62591;PMS5003;48659;41.622;2.276;2023-04-07T15:46:43;6;6;
62591;PMS5003;48659;41.622;2.276;2023-04-07T15:49:11;4;4;
62591;PMS5003;48659;41.622;2.276;2023-04-07T15:51:39;5;5;
62591;PMS5003;48659;41.622;2.276;2023-04-07T15:54:06;6;6;
62591;PMS5003;48659;41.622;2.276;2023-04-07T15:56:33;5;5;
62591;PMS5003;48659;41.622;2.276;2023-04-07T15:59:03;5;5;
62591;PMS5003;48659;41.622;2.276;2023-04-07T16:01:30;4;3;
62591;PMS5003;48659;41.622;2.276;2023-04-07T16:03:58;5;4;
62591;PMS5003;48659;41.622;2.276;2023-04-07T16:06:26;6;5;
62591;PMS5003;48659;41.622;2.276;2023-04-07T16:08:53;4;4;
62591;PMS5003;48659;41.622;2.276;2023-04-07T16:11:20;3;3;
62591;PMS5003;48659;41.622;2.276;2023-04-07T16:13:47;2;2;
62591;PMS5003;48659;41.622;2.276;2023-04-07T16:16:15;7;5;
62591;PMS5003;48659;41.622;2.276;2023-04-07T16:18:43;4;3;
62591;PMS5003;48659;41.622;2.276;2023-04-07T16:21:10;4;4;
62591;PMS5003;48659;41.622;2.276;2023-04-07T16:23:37;3;3;
62591;PMS5003;48659;41.622;2.276;2023-04-07T16:26:04;4;4;
62591;PMS5003;48659;41.622;2.276;2023-04-07T16:28:32;6;4;
62591;PMS5003;48659;41.622;2.276;2023-04-07T16:31:03;3;3;
62591;PMS5003;48659;41.622;2.276;2023-04-07T16:33:30;2;2;
62591;PMS5003;48659;41.622;2.276;2023-04-07T16:36:04;4;3;
62591;PMS5003;48659;41.622;2.276;2023-04-07T16:38:32;3;3;
62591;PMS5003;48659;41.622;2.276;2023-04-07T16:41:05;2;2;
62591;PMS5003;48659;41.622;2.276;2023-04-07T16:43:33;3;3;